createdAt,value
2023-04-03T00:00:46.816Z,97463.88
2023-04-03T00:03:13.379Z,97460.88
2023-04-03T00:05:39.902Z,97442.97
2023-04-03T00:08:08.840Z,97431.53
2023-04-03T00:10:35.791Z,97417.13
2023-04-03T00:13:04.187Z,97455.06
2023-04-03T00:15:30.824Z,97463.69
2023-04-03T00:17:58.035Z,97442.53
2023-04-03T00:20:24.805Z,97466.47
2023-04-03T00:22:51.368Z,97416.38
2023-04-03T00:25:17.946Z,97463.69
2023-04-03T00:27:44.424Z,97453.78
2023-04-03T00:30:12.358Z,97462.19
2023-04-03T00:32:38.927Z,97450.50
2023-04-03T00:35:06.164Z,97429.53
2023-04-03T00:37:32.817Z,97451.66
2023-04-03T00:39:59.336Z,97453.38
2023-04-03T00:42:26.239Z,97436.59
2023-04-03T00:44:58.463Z,97469.50
2023-04-03T00:47:26.263Z,97463.69
2023-04-03T00:49:53.721Z,97469.28
2023-04-03T00:52:26.424Z,97451.69
2023-04-03T00:54:57.840Z,97470.75
2023-04-03T00:57:25.510Z,97469.16
2023-04-03T00:59:58.465Z,97453.91
2023-04-03T01:02:25.064Z,97441.78
2023-04-03T01:04:52.592Z,97457.75
2023-04-03T01:07:30.403Z,97449.81
2023-04-03T01:10:00.702Z,97459.78
2023-04-03T01:12:30.683Z,97455.63
2023-04-03T01:15:09.480Z,97398.09
2023-04-03T01:17:41.881Z,97457.47
2023-04-03T01:20:38.260Z,97467.25
2023-04-03T01:23:10.673Z,97466.31
2023-04-03T01:25:39.355Z,97462.28
2023-04-03T01:28:07.659Z,97441.88
2023-04-03T01:30:42.247Z,97404.09
2023-04-03T01:33:08.974Z,97474.19
2023-04-03T01:35:35.627Z,97429.56
2023-04-03T01:38:02.189Z,97452.63
2023-04-03T01:40:28.729Z,97451.81
2023-04-03T01:42:55.369Z,97426.47
2023-04-03T01:45:21.939Z,97433.69
2023-04-03T01:47:48.586Z,97451.88
2023-04-03T01:50:15.516Z,97401.56
2023-04-03T01:52:42.131Z,97437.31
2023-04-03T01:55:09.045Z,97390.81
2023-04-03T01:57:35.876Z,97455.28
2023-04-03T02:00:02.727Z,97471.28
2023-04-03T02:02:39.611Z,97475.81
2023-04-03T02:05:07.288Z,97420.94
2023-04-03T02:07:33.829Z,97465.88
2023-04-03T02:10:00.320Z,97444.75
2023-04-03T02:12:27.690Z,97462.03
2023-04-03T02:14:54.145Z,97454.75
2023-04-03T02:17:20.744Z,97446.78
2023-04-03T02:19:47.778Z,97437.81
2023-04-03T02:22:14.609Z,97466.94
2023-04-03T02:24:41.374Z,97433.94
2023-04-03T02:27:08.057Z,97436.53
2023-04-03T02:29:34.570Z,97422.88
2023-04-03T02:32:01.124Z,97412.81
2023-04-03T02:34:28.067Z,97444.47
2023-04-03T02:36:56.099Z,97455.78
2023-04-03T02:39:22.854Z,97472.06
2023-04-03T02:41:49.748Z,97454.44
2023-04-03T02:44:21.544Z,97466.50
2023-04-03T02:46:48.089Z,97413.78
2023-04-03T02:49:14.635Z,97460.25
2023-04-03T02:51:41.087Z,97443.41
2023-04-03T02:54:08.062Z,97441.84
2023-04-03T02:56:37.295Z,97474.19
2023-04-03T02:59:04.136Z,97473.00
2023-04-03T03:01:33.459Z,97485.25
2023-04-03T03:04:01.312Z,97486.69
2023-04-03T03:06:28.018Z,97440.28
2023-04-03T03:08:55.046Z,97478.81
2023-04-03T03:11:22.003Z,97484.38
2023-04-03T03:13:48.674Z,97455.94
2023-04-03T03:16:15.437Z,97480.59
2023-04-03T03:18:42.085Z,97455.97
2023-04-03T03:21:10.766Z,97476.66
2023-04-03T03:23:37.661Z,97421.66
2023-04-03T03:26:07.913Z,97460.63
2023-04-03T03:28:35.678Z,97441.53
2023-04-03T03:31:02.240Z,97453.22
2023-04-03T03:33:29.343Z,97449.19
2023-04-03T03:35:56.324Z,97470.97
2023-04-03T03:38:23.943Z,97455.16
2023-04-03T03:40:52.127Z,97468.03
2023-04-03T03:43:21.210Z,97471.88
2023-04-03T03:45:53.940Z,97470.78
2023-04-03T03:48:24.357Z,97469.00
2023-04-03T03:50:51.355Z,97478.78
2023-04-03T03:53:20.473Z,97468.88
2023-04-03T03:55:48.512Z,97480.03
2023-04-03T03:58:15.162Z,97433.16
2023-04-03T04:00:42.399Z,97441.50
2023-04-03T04:03:09.308Z,97469.94
2023-04-03T04:05:36.526Z,97469.19
2023-04-03T04:08:03.600Z,97449.50
2023-04-03T04:10:30.240Z,97461.44
2023-04-03T04:12:58.725Z,97480.00
2023-04-03T04:15:28.009Z,97453.56
2023-04-03T04:17:55.885Z,97480.38
2023-04-03T04:20:23.401Z,97483.03
2023-04-03T04:22:50.003Z,97470.91
2023-04-03T04:25:18.206Z,97467.38
2023-04-03T04:27:44.834Z,97480.16
2023-04-03T04:30:15.325Z,97478.88
2023-04-03T04:32:42.848Z,97489.59
2023-04-03T04:35:09.987Z,97468.97
2023-04-03T04:37:40.709Z,97470.19
2023-04-03T04:40:08.199Z,97471.63
2023-04-03T04:42:34.803Z,97482.75
2023-04-03T04:45:01.572Z,97458.44
2023-04-03T04:47:29.960Z,97503.97
2023-04-03T04:49:56.922Z,97502.50
2023-04-03T04:52:23.786Z,97459.66
2023-04-03T04:54:50.487Z,97465.50
2023-04-03T04:57:18.328Z,97498.44
2023-04-03T04:59:45.181Z,97489.47
2023-04-03T05:02:12.593Z,97506.59
2023-04-03T05:04:40.814Z,97472.44
2023-04-03T05:07:13.132Z,97492.50
2023-04-03T05:09:39.697Z,97478.81
2023-04-03T05:12:06.264Z,97489.72
2023-04-03T05:14:38.770Z,97478.47
2023-04-03T05:17:08.623Z,97476.84
2023-04-03T05:19:38.942Z,97502.31
2023-04-03T05:22:07.036Z,97507.38
2023-04-03T05:24:33.964Z,97507.88
2023-04-03T05:27:01.459Z,97503.84
2023-04-03T05:29:28.510Z,97494.22
2023-04-03T05:31:56.503Z,97480.09
2023-04-03T05:34:25.036Z,97505.06
2023-04-03T05:36:54.072Z,97487.31
2023-04-03T05:39:20.747Z,97498.44
2023-04-03T05:41:48.011Z,97504.25
2023-04-03T05:44:14.542Z,97514.63
2023-04-03T05:46:42.727Z,97510.09
2023-04-03T05:49:10.457Z,97470.91
2023-04-03T05:51:38.654Z,97513.47
2023-04-03T05:54:18.905Z,97511.97
2023-04-03T05:56:46.261Z,97459.31
2023-04-03T05:59:13.200Z,97516.28
2023-04-03T06:01:40.109Z,97504.75
2023-04-03T06:04:09.979Z,97482.91
2023-04-03T06:07:04.091Z,97514.25
2023-04-03T06:09:31.256Z,97507.38
2023-04-03T06:12:01.905Z,97532.06
2023-04-03T06:14:29.816Z,97515.88
2023-04-03T06:16:56.657Z,97513.41
2023-04-03T06:19:23.881Z,97528.66
2023-04-03T06:21:53.767Z,97522.09
2023-04-03T06:24:22.644Z,97494.91
2023-04-03T06:26:49.898Z,97516.72
2023-04-03T06:29:16.513Z,97513.19
2023-04-03T06:31:43.022Z,97537.38
2023-04-03T06:34:10.171Z,97516.88
2023-04-03T06:36:36.722Z,97531.25
2023-04-03T06:39:04.148Z,97492.53
2023-04-03T06:41:31.044Z,97522.22
2023-04-03T06:43:58.944Z,97502.22
2023-04-03T06:46:27.072Z,97515.41
2023-04-03T06:48:54.065Z,97526.97
2023-04-03T06:51:30.667Z,97520.72
2023-04-03T06:53:59.501Z,97549.09
2023-04-03T06:56:27.387Z,97530.97
2023-04-03T06:58:55.701Z,97557.44
2023-04-03T07:01:22.417Z,97541.44
2023-04-03T07:03:49.166Z,97531.25
2023-04-03T07:06:17.258Z,97555.56
2023-04-03T07:08:44.544Z,97537.34
2023-04-03T07:11:12.509Z,97535.44
2023-04-03T07:13:39.379Z,97561.00
2023-04-03T07:16:07.244Z,97559.97
2023-04-03T07:18:34.345Z,97537.75
2023-04-03T07:21:01.413Z,97561.47
2023-04-03T07:23:28.403Z,97572.28
2023-04-03T07:25:55.371Z,97558.22
2023-04-03T07:28:23.613Z,97571.63
2023-04-03T07:30:56.133Z,97562.63
2023-04-03T07:33:23.982Z,97576.94
2023-04-03T07:35:50.701Z,97559.78
2023-04-03T07:38:17.264Z,97552.88
2023-04-03T07:40:49.017Z,97582.72
2023-04-03T07:43:18.444Z,97592.34
2023-04-03T07:45:46.122Z,97587.75
2023-04-03T07:48:13.492Z,97588.66
2023-04-03T07:50:44.034Z,97595.94
2023-04-03T07:53:10.775Z,97589.03
2023-04-03T07:55:43.673Z,97563.47
2023-04-03T07:58:15.958Z,97596.19
2023-04-03T08:00:42.986Z,97590.91
2023-04-03T08:03:12.676Z,97573.91
2023-04-03T08:05:44.299Z,97573.97
2023-04-03T08:08:12.903Z,97593.44
2023-04-03T08:10:39.478Z,97581.59
2023-04-03T08:13:06.804Z,97607.94
2023-04-03T08:15:33.759Z,97593.69
2023-04-03T08:18:01.973Z,97546.31
2023-04-03T08:20:28.921Z,97594.06
2023-04-03T08:22:55.811Z,97566.72
2023-04-03T08:25:22.600Z,97593.00
2023-04-03T08:27:49.097Z,97585.78
2023-04-03T08:30:15.934Z,97611.84
2023-04-03T08:32:45.860Z,97575.41
2023-04-03T08:35:12.948Z,97569.34
2023-04-03T08:37:40.306Z,97595.50
2023-04-03T08:40:13.656Z,97578.63
2023-04-03T08:42:55.487Z,97572.66
2023-04-03T08:45:34.245Z,97598.00
2023-04-03T08:48:41.075Z,97609.16
2023-04-03T08:51:16.694Z,97591.13
2023-04-03T08:53:52.860Z,97591.53
2023-04-03T08:56:20.091Z,97581.19
2023-04-03T08:59:08.193Z,97574.19
2023-04-03T09:01:37.639Z,97426.25
2023-04-03T09:04:13.237Z,97595.44
2023-04-03T09:06:40.703Z,97581.69
2023-04-03T09:09:22.975Z,97578.50
2023-04-03T09:12:01.684Z,97605.50
2023-04-03T09:14:39.227Z,97602.06
2023-04-03T09:17:15.903Z,97586.63
2023-04-03T09:20:15.737Z,97598.25
2023-04-03T09:22:49.796Z,97589.50
2023-04-03T09:25:34.039Z,97594.50
2023-04-03T09:28:02.704Z,97584.00
2023-04-03T09:30:29.587Z,97590.13
2023-04-03T09:32:58.188Z,97598.69
2023-04-03T09:35:36.230Z,97595.91
2023-04-03T09:38:12.889Z,97598.91
2023-04-03T09:40:48.323Z,97603.38
2023-04-03T09:43:17.595Z,97610.56
2023-04-03T09:45:45.753Z,97597.28
2023-04-03T09:48:16.781Z,97612.16
2023-04-03T09:50:57.149Z,97610.06
2023-04-03T09:53:36.923Z,97620.53
2023-04-03T09:56:21.575Z,97610.81
2023-04-03T09:58:51.796Z,97612.50
2023-04-03T10:01:33.499Z,97618.66
2023-04-03T10:04:11.950Z,97558.97
2023-04-03T10:06:47.944Z,97612.94
2023-04-03T10:09:29.949Z,97583.50
2023-04-03T10:12:12.905Z,97577.31
2023-04-03T10:14:42.461Z,97597.44
2023-04-03T10:17:35.707Z,97597.06
2023-04-03T10:20:33.358Z,97594.22
2023-04-03T10:23:27.198Z,97602.81
2023-04-03T10:26:09.300Z,97595.22
2023-04-03T10:28:41.320Z,97588.97
2023-04-03T10:31:26.530Z,97586.47
2023-04-03T10:34:04.020Z,97597.97
2023-04-03T10:37:01.010Z,97578.44
2023-04-03T10:39:42.169Z,97557.13
2023-04-03T10:42:47.769Z,97536.72
2023-04-03T10:45:27.606Z,97570.59
2023-04-03T10:48:02.466Z,97572.06
2023-04-03T10:50:39.794Z,97570.06
2023-04-03T10:53:33.693Z,97577.47
2023-04-03T10:56:28.606Z,97547.78
2023-04-03T10:59:08.141Z,97556.34
2023-04-03T11:01:39.358Z,97597.56
2023-04-03T11:04:07.126Z,97587.69
2023-04-03T11:06:44.245Z,97584.75
2023-04-03T11:09:28.153Z,97572.03
2023-04-03T11:12:02.829Z,97587.28
2023-04-03T11:14:36.012Z,97580.84
2023-04-03T11:17:20.354Z,97564.38
2023-04-03T11:20:01.357Z,97578.75
2023-04-03T11:22:42.891Z,97562.28
2023-04-03T11:25:12.434Z,97577.44
2023-04-03T11:27:47.059Z,97553.91
2023-04-03T11:30:21.910Z,97558.44
2023-04-03T11:33:04.365Z,97553.97
2023-04-03T11:35:32.113Z,97533.53
2023-04-03T11:38:01.431Z,97567.53
2023-04-03T11:40:33.244Z,97556.91
2023-04-03T11:42:59.635Z,97555.84
2023-04-03T11:45:26.116Z,97547.78
2023-04-03T11:47:55.578Z,97549.00
2023-04-03T11:50:42.205Z,97572.44
2023-04-03T11:53:08.969Z,97558.97
2023-04-03T11:55:46.589Z,97564.22
2023-04-03T11:58:16.121Z,97561.38
2023-04-03T12:00:48.648Z,97554.13
2023-04-03T12:03:24.651Z,97573.88
2023-04-03T12:06:07.362Z,97569.94
2023-04-03T12:08:33.814Z,97566.41
2023-04-03T12:11:09.297Z,97568.06
2023-04-03T12:13:37.550Z,97561.03
2023-04-03T12:16:06.540Z,97535.94
2023-04-03T12:18:51.274Z,97522.56
2023-04-03T12:21:31.146Z,97543.53
2023-04-03T12:24:09.421Z,97548.53
2023-04-03T12:26:58.049Z,97535.66
2023-04-03T12:29:29.088Z,97543.72
2023-04-03T12:32:04.695Z,97494.84
2023-04-03T12:35:08.318Z,97533.03
2023-04-03T12:37:56.461Z,97529.56
2023-04-03T12:40:32.836Z,97532.56
2023-04-03T12:43:20.807Z,97541.75
2023-04-03T12:46:09.276Z,97538.13
2023-04-03T12:48:57.089Z,97514.34
2023-04-03T12:51:31.329Z,97533.69
2023-04-03T12:54:03.354Z,97537.22
2023-04-03T12:56:33.566Z,97511.56
2023-04-03T12:59:23.237Z,97516.94
2023-04-03T13:02:00.039Z,97509.94
2023-04-03T13:04:28.252Z,97496.72
2023-04-03T13:06:55.329Z,97532.50
2023-04-03T13:09:26.341Z,97527.09
2023-04-03T13:12:15.045Z,97477.03
2023-04-03T13:14:41.965Z,97515.34
2023-04-03T13:17:14.693Z,97512.69
2023-04-03T13:19:45.899Z,97506.91
2023-04-03T13:22:40.302Z,97495.63
2023-04-03T13:25:10.326Z,97521.97
2023-04-03T13:27:37.345Z,97515.88
2023-04-03T13:30:05.379Z,97510.84
2023-04-03T13:32:33.146Z,97502.97
2023-04-03T13:35:08.181Z,97479.06
2023-04-03T13:37:56.651Z,97490.78
2023-04-03T13:40:23.529Z,97459.19
2023-04-03T13:43:05.698Z,97501.91
2023-04-03T13:45:34.686Z,97495.44
2023-04-03T13:48:22.117Z,97476.72
2023-04-03T13:50:52.902Z,97498.41
2023-04-03T13:53:19.373Z,97463.19
2023-04-03T13:55:58.504Z,97488.41
2023-04-03T13:58:27.278Z,97493.03
2023-04-03T14:01:19.520Z,97500.69
2023-04-03T14:04:03.702Z,97484.53
2023-04-03T14:06:30.827Z,97489.31
2023-04-03T14:08:57.305Z,97487.75
2023-04-03T14:11:27.982Z,97500.75
2023-04-03T14:13:56.657Z,97482.56
2023-04-03T14:16:28.442Z,97474.94
2023-04-03T14:18:55.053Z,97447.56
2023-04-03T14:21:22.256Z,97445.56
2023-04-03T14:23:49.367Z,97475.44
2023-04-03T14:26:21.360Z,97473.34
2023-04-03T14:28:50.438Z,97449.81
2023-04-03T14:31:18.710Z,97476.34
2023-04-03T14:33:46.181Z,97452.50
2023-04-03T14:36:18.926Z,97463.38
2023-04-03T14:38:46.019Z,97449.97
2023-04-03T14:41:16.872Z,97458.03
2023-04-03T14:43:44.908Z,97415.81
2023-04-03T14:46:48.290Z,97452.97
2023-04-03T14:49:24.618Z,97415.59
2023-04-03T14:51:51.520Z,97450.78
2023-04-03T14:54:26.137Z,97460.94
2023-04-03T14:56:53.855Z,97462.25
2023-04-03T14:59:22.408Z,97432.34
2023-04-03T15:01:49.760Z,97424.09
2023-04-03T15:04:18.799Z,97457.84
2023-04-03T15:06:46.307Z,97422.81
2023-04-03T15:09:30.980Z,97432.56
2023-04-03T15:11:57.441Z,97420.13
2023-04-03T15:14:35.489Z,97454.22
2023-04-03T15:17:14.697Z,97435.72
2023-04-03T15:19:41.498Z,97458.31
2023-04-03T15:22:08.057Z,97452.53
2023-04-03T15:24:34.552Z,97449.78
2023-04-03T15:27:01.546Z,97419.78
2023-04-03T15:29:28.481Z,97465.00
2023-04-03T15:31:55.216Z,97447.47
2023-04-03T15:34:22.869Z,97446.09
2023-04-03T15:36:51.046Z,97439.91
2023-04-03T15:39:17.679Z,97459.72
2023-04-03T15:41:44.640Z,97452.88
2023-04-03T15:44:11.083Z,97465.03
2023-04-03T15:46:37.730Z,97441.63
2023-04-03T15:49:04.213Z,97441.25
2023-04-03T15:51:31.037Z,97458.44
2023-04-03T15:53:57.656Z,97448.41
2023-04-03T15:56:24.206Z,97443.97
2023-04-03T15:58:50.663Z,97456.91
2023-04-03T16:01:17.288Z,97441.38
2023-04-03T16:03:46.350Z,97438.66
2023-04-03T16:06:18.441Z,97463.03
2023-04-03T16:08:45.008Z,97450.19
2023-04-03T16:11:11.582Z,97446.56
2023-04-03T16:13:37.973Z,97471.81
2023-04-03T16:16:05.568Z,97453.38
2023-04-03T16:18:32.724Z,97460.41
2023-04-03T16:20:59.746Z,97471.25
2023-04-03T16:23:26.195Z,97465.19
2023-04-03T16:25:52.601Z,97473.16
2023-04-03T16:28:19.425Z,97441.38
2023-04-03T16:30:47.044Z,97469.38
2023-04-03T16:33:14.006Z,97445.53
2023-04-03T16:35:40.642Z,97450.97
2023-04-03T16:38:07.297Z,97458.50
2023-04-03T16:40:34.793Z,97469.06
2023-04-03T16:43:02.766Z,97445.19
2023-04-03T16:45:29.272Z,97468.75
2023-04-03T16:47:55.728Z,97476.81
2023-04-03T16:50:22.291Z,97457.38
2023-04-03T16:52:48.978Z,97445.69
2023-04-03T16:55:15.497Z,97444.88
2023-04-03T16:57:41.871Z,97495.69
2023-04-03T17:00:09.356Z,97489.47
2023-04-03T17:02:36.042Z,97467.78
2023-04-03T17:05:03.202Z,97487.94
2023-04-03T17:07:29.695Z,97485.44
2023-04-03T17:09:56.078Z,97488.44
2023-04-03T17:12:23.404Z,97492.72
2023-04-03T17:14:50.047Z,97460.22
2023-04-03T17:17:21.770Z,97483.78
2023-04-03T17:19:48.317Z,97503.75
2023-04-03T17:22:16.913Z,97487.31
2023-04-03T17:24:44.587Z,97484.84
2023-04-03T17:27:11.060Z,97467.16
2023-04-03T17:29:37.442Z,97503.22
2023-04-03T17:32:04.086Z,97485.66
2023-04-03T17:34:30.628Z,97482.44
2023-04-03T17:36:57.057Z,97511.75
2023-04-03T17:39:23.550Z,97498.47
2023-04-03T17:41:49.954Z,97513.38
2023-04-03T17:44:16.507Z,97486.59
2023-04-03T17:46:43.045Z,97489.31
2023-04-03T17:49:13.723Z,97520.91
2023-04-03T17:51:43.091Z,97501.25
2023-04-03T17:54:09.929Z,97518.44
2023-04-03T17:56:36.674Z,97507.41
2023-04-03T17:59:03.259Z,97484.00
2023-04-03T18:01:35.817Z,97505.28
2023-04-03T18:04:04.524Z,97523.72
2023-04-03T18:06:36.793Z,97514.25
2023-04-03T18:09:07.188Z,97491.09
2023-04-03T18:11:34.145Z,97531.91
2023-04-03T18:14:03.232Z,97504.63
2023-04-03T18:16:31.021Z,97530.16
2023-04-03T18:19:07.001Z,97538.06
2023-04-03T18:21:45.776Z,97542.69
2023-04-03T18:24:14.772Z,97549.59
2023-04-03T18:26:44.568Z,97551.06
2023-04-03T18:29:12.247Z,97547.13
2023-04-03T18:31:43.867Z,97563.06
2023-04-03T18:34:10.515Z,97549.25
2023-04-03T18:36:37.022Z,97545.72
2023-04-03T18:39:03.812Z,97532.88
2023-04-03T18:41:33.796Z,97553.69
2023-04-03T18:44:03.936Z,97571.09
2023-04-03T18:46:32.040Z,97574.72
2023-04-03T18:48:59.579Z,97562.16
2023-04-03T18:51:26.480Z,97580.47
2023-04-03T18:53:52.933Z,97568.44
2023-04-03T18:56:19.358Z,97593.00
2023-04-03T18:58:45.934Z,97592.91
2023-04-03T19:01:14.144Z,97567.31
2023-04-03T19:03:41.145Z,97583.25
2023-04-03T19:06:07.855Z,97571.31
2023-04-03T19:08:34.934Z,97573.63
2023-04-03T19:11:01.444Z,97592.13
2023-04-03T19:13:28.145Z,97582.41
2023-04-03T19:15:58.904Z,97576.38
2023-04-03T19:18:29.464Z,97602.50
2023-04-03T19:20:57.197Z,97593.50
2023-04-03T19:23:25.004Z,97614.63
2023-04-03T19:26:03.646Z,97601.84
2023-04-03T19:28:30.646Z,97619.59
2023-04-03T19:30:58.438Z,97597.34
2023-04-03T19:33:25.515Z,97616.34
2023-04-03T19:35:52.233Z,97598.50
2023-04-03T19:38:18.768Z,97611.34
2023-04-03T19:40:46.117Z,97621.72
2023-04-03T19:43:14.432Z,97632.00
2023-04-03T19:45:41.543Z,97623.06
2023-04-03T19:48:08.432Z,97605.84
2023-04-03T19:50:35.669Z,97634.03
2023-04-03T19:53:02.864Z,97631.25
2023-04-03T19:55:32.838Z,97629.25
2023-04-03T19:57:59.730Z,97613.28
2023-04-03T20:00:28.179Z,97635.09
2023-04-03T20:02:55.222Z,97614.09
2023-04-03T20:05:22.076Z,97624.00
2023-04-03T20:07:48.607Z,97620.59
2023-04-03T20:10:15.697Z,97632.41
2023-04-03T20:12:42.762Z,97623.81
2023-04-03T20:15:10.417Z,97637.34
2023-04-03T20:17:37.398Z,97648.13
2023-04-03T20:20:05.314Z,97646.59
2023-04-03T20:22:32.715Z,97643.09
2023-04-03T20:25:06.007Z,97629.50
2023-04-03T20:27:36.073Z,97626.91
2023-04-03T20:30:04.658Z,97648.44
2023-04-03T20:32:31.740Z,97633.53
2023-04-03T20:35:04.327Z,97646.59
2023-04-03T20:37:31.507Z,97617.78
2023-04-03T20:39:58.040Z,97613.63
2023-04-03T20:42:24.548Z,97632.53
2023-04-03T20:44:51.029Z,97627.81
2023-04-03T20:47:17.596Z,97639.00
2023-04-03T20:49:45.062Z,97635.09
2023-04-03T20:52:11.791Z,97632.72
2023-04-03T20:54:38.571Z,97641.88
2023-04-03T20:57:05.252Z,97625.25
2023-04-03T20:59:34.044Z,97594.84
2023-04-03T21:02:00.770Z,97632.19
2023-04-03T21:04:39.449Z,97638.91
2023-04-03T21:07:44.113Z,97641.31
2023-04-03T21:10:48.604Z,97644.00
2023-04-03T21:13:53.642Z,97646.16
2023-04-03T21:16:20.084Z,97639.66
2023-04-03T21:19:06.006Z,97626.81
2023-04-03T21:21:36.916Z,97594.16
2023-04-03T21:24:06.611Z,97646.06
2023-04-03T21:26:36.559Z,97633.88
2023-04-03T21:29:03.168Z,97614.47
2023-04-03T21:31:49.439Z,97649.13
2023-04-03T21:34:16.522Z,97643.66
2023-04-03T21:36:44.017Z,97648.75
2023-04-03T21:39:11.675Z,97642.50
2023-04-03T21:41:38.369Z,97638.16
2023-04-03T21:44:05.099Z,97648.84
2023-04-03T21:46:32.047Z,97591.13
2023-04-03T21:48:58.653Z,97610.59
2023-04-03T21:51:25.212Z,97634.47
2023-04-03T21:53:53.332Z,97627.81
2023-04-03T21:56:24.305Z,97622.06
2023-04-03T21:58:51.586Z,97624.63
2023-04-03T22:17:31.200Z,97631.72
2023-04-03T22:19:57.782Z,97644.84
2023-04-03T22:22:25.120Z,97641.56
2023-04-03T22:24:52.344Z,97645.31
2023-04-03T22:27:18.907Z,97640.63
2023-04-03T22:29:46.539Z,97642.75
2023-04-03T22:32:16.095Z,97641.09
2023-04-03T22:34:42.692Z,97615.16
2023-04-03T22:37:09.211Z,97620.75
2023-04-03T22:39:35.959Z,97635.53
2023-04-03T22:42:02.859Z,97636.63
2023-04-03T22:44:34.954Z,97628.34
2023-04-03T22:47:02.942Z,97632.88
2023-04-03T22:49:29.963Z,97631.34
2023-04-03T22:51:56.755Z,97625.63
2023-04-03T22:54:23.307Z,97615.25
2023-04-03T22:56:51.596Z,97633.06
2023-04-03T22:59:18.104Z,97610.25
2023-04-03T23:01:44.779Z,97629.91
2023-04-03T23:04:12.572Z,97630.09
2023-04-03T23:06:39.455Z,97625.28
2023-04-03T23:09:06.614Z,97609.69
2023-04-03T23:11:33.120Z,97628.00
2023-04-03T23:13:59.867Z,97626.53
2023-04-03T23:16:26.391Z,97625.13
2023-04-03T23:18:53.020Z,97617.34
2023-04-03T23:21:19.696Z,97623.16
2023-04-03T23:23:46.267Z,97610.84
2023-04-03T23:26:14.534Z,97619.75
2023-04-03T23:28:41.901Z,97618.16
2023-04-03T23:31:10.132Z,97601.69
2023-04-03T23:33:38.536Z,97620.88
2023-04-03T23:36:09.056Z,97619.69
2023-04-03T23:38:36.788Z,97616.38
2023-04-03T23:41:03.271Z,97603.28
2023-04-03T23:43:31.133Z,97577.34
2023-04-03T23:45:57.638Z,97612.41
2023-04-03T23:48:24.101Z,97592.94
2023-04-03T23:50:50.658Z,97611.38
2023-04-03T23:53:17.229Z,97599.94
2023-04-03T23:55:44.049Z,97571.78
2023-04-03T23:58:13.302Z,97583.31
